sensor_id;sensor_type;location;lat;lon;timestamp;P1;durP1;ratioP1;P2;durP2;ratioP2
20525;SDS011;10421;49.142;9.232;2022-12-05T00:00:07;9.57;;;5.70;;
20525;SDS011;10421;49.142;9.232;2022-12-05T00:02:36;9.07;;;5.00;;
20525;SDS011;10421;49.142;9.232;2022-12-05T00:05:04;9.80;;;5.20;;
20525;SDS011;10421;49.142;9.232;2022-12-05T00:07:31;12.37;;;5.43;;
20525;SDS011;10421;49.142;9.232;2022-12-05T00:09:59;9.47;;;5.20;;
20525;SDS011;10421;49.142;9.232;2022-12-05T00:12:26;11.00;;;6.13;;
20525;SDS011;10421;49.142;9.232;2022-12-05T00:14:53;10.37;;;6.13;;
20525;SDS011;10421;49.142;9.232;2022-12-05T00:17:20;8.80;;;5.40;;
20525;SDS011;10421;49.142;9.232;2022-12-05T00:19:49;11.30;;;6.03;;
20525;SDS011;10421;49.142;9.232;2022-12-05T00:22:17;11.70;;;5.70;;
20525;SDS011;10421;49.142;9.232;2022-12-05T00:24:43;12.20;;;5.97;;
20525;SDS011;10421;49.142;9.232;2022-12-05T00:27:11;9.60;;;5.37;;
20525;SDS011;10421;49.142;9.232;2022-12-05T00:29:38;14.90;;;6.50;;
20525;SDS011;10421;49.142;9.232;2022-12-05T00:32:06;10.57;;;6.33;;
20525;SDS011;10421;49.142;9.232;2022-12-05T00:34:33;12.73;;;5.70;;
20525;SDS011;10421;49.142;9.232;2022-12-05T00:37:01;12.37;;;6.37;;
20525;SDS011;10421;49.142;9.232;2022-12-05T00:39:28;9.70;;;5.80;;
20525;SDS011;10421;49.142;9.232;2022-12-05T00:41:55;11.60;;;5.80;;
20525;SDS011;10421;49.142;9.232;2022-12-05T00:44:22;8.40;;;5.83;;
20525;SDS011;10421;49.142;9.232;2022-12-05T00:46:49;16.97;;;7.10;;
20525;SDS011;10421;49.142;9.232;2022-12-05T00:49:16;13.10;;;6.30;;
20525;SDS011;10421;49.142;9.232;2022-12-05T00:51:44;10.67;;;6.77;;
20525;SDS011;10421;49.142;9.232;2022-12-05T00:54:13;12.63;;;6.37;;
20525;SDS011;10421;49.142;9.232;2022-12-05T00:56:41;13.30;;;6.17;;
20525;SDS011;10421;49.142;9.232;2022-12-05T00:59:11;10.67;;;5.80;;
20525;SDS011;10421;49.142;9.232;2022-12-05T01:01:41;9.47;;;6.43;;
20525;SDS011;10421;49.142;9.232;2022-12-05T01:04:11;14.43;;;6.30;;
20525;SDS011;10421;49.142;9.232;2022-12-05T01:06:40;15.73;;;7.10;;
20525;SDS011;10421;49.142;9.232;2022-12-05T01:09:09;11.40;;;6.50;;
20525;SDS011;10421;49.142;9.232;2022-12-05T01:11:40;12.67;;;6.80;;
20525;SDS011;10421;49.142;9.232;2022-12-05T01:14:09;13.20;;;6.60;;
20525;SDS011;10421;49.142;9.232;2022-12-05T01:16:38;12.07;;;6.60;;
20525;SDS011;10421;49.142;9.232;2022-12-05T01:19:07;14.00;;;6.87;;
20525;SDS011;10421;49.142;9.232;2022-12-05T01:21:36;11.77;;;6.70;;
20525;SDS011;10421;49.142;9.232;2022-12-05T01:24:03;9.13;;;6.47;;
20525;SDS011;10421;49.142;9.232;2022-12-05T01:26:32;13.10;;;6.40;;
20525;SDS011;10421;49.142;9.232;2022-12-05T01:28:59;12.47;;;7.17;;
20525;SDS011;10421;49.142;9.232;2022-12-05T01:31:27;12.67;;;6.40;;
20525;SDS011;10421;49.142;9.232;2022-12-05T01:33:55;12.90;;;6.83;;
20525;SDS011;10421;49.142;9.232;2022-12-05T01:36:24;12.73;;;6.93;;
20525;SDS011;10421;49.142;9.232;2022-12-05T01:38:52;14.23;;;6.80;;
20525;SDS011;10421;49.142;9.232;2022-12-05T01:41:20;15.10;;;7.60;;
20525;SDS011;10421;49.142;9.232;2022-12-05T01:43:55;16.33;;;7.17;;
20525;SDS011;10421;49.142;9.232;2022-12-05T01:46:24;15.00;;;7.53;;
20525;SDS011;10421;49.142;9.232;2022-12-05T01:48:54;12.13;;;6.70;;
20525;SDS011;10421;49.142;9.232;2022-12-05T01:51:25;15.80;;;7.07;;
20525;SDS011;10421;49.142;9.232;2022-12-05T01:53:52;15.70;;;8.80;;
20525;SDS011;10421;49.142;9.232;2022-12-05T01:56:19;14.80;;;7.10;;
20525;SDS011;10421;49.142;9.232;2022-12-05T01:58:46;15.70;;;7.73;;
20525;SDS011;10421;49.142;9.232;2022-12-05T02:01:15;12.03;;;7.40;;
20525;SDS011;10421;49.142;9.232;2022-12-05T02:03:44;22.23;;;9.93;;
20525;SDS011;10421;49.142;9.232;2022-12-05T02:06:13;17.03;;;8.40;;
20525;SDS011;10421;49.142;9.232;2022-12-05T02:08:40;18.57;;;8.30;;
20525;SDS011;10421;49.142;9.232;2022-12-05T02:11:07;18.27;;;8.63;;
20525;SDS011;10421;49.142;9.232;2022-12-05T02:13:42;16.53;;;8.30;;
20525;SDS011;10421;49.142;9.232;2022-12-05T02:16:26;18.70;;;8.90;;
20525;SDS011;10421;49.142;9.232;2022-12-05T02:19:03;16.10;;;7.47;;
20525;SDS011;10421;49.142;9.232;2022-12-05T02:21:51;17.20;;;8.70;;
20525;SDS011;10421;49.142;9.232;2022-12-05T02:24:37;19.77;;;9.10;;
20525;SDS011;10421;49.142;9.232;2022-12-05T02:27:23;23.50;;;10.30;;
20525;SDS011;10421;49.142;9.232;2022-12-05T02:30:07;19.00;;;9.47;;
20525;SDS011;10421;49.142;9.232;2022-12-05T02:32:40;21.57;;;9.20;;
20525;SDS011;10421;49.142;9.232;2022-12-05T02:35:19;22.07;;;9.30;;
20525;SDS011;10421;49.142;9.232;2022-12-05T02:37:57;20.43;;;9.50;;
20525;SDS011;10421;49.142;9.232;2022-12-05T02:40:35;21.87;;;9.77;;
20525;SDS011;10421;49.142;9.232;2022-12-05T02:43:07;24.30;;;10.57;;
20525;SDS011;10421;49.142;9.232;2022-12-05T02:45:39;24.47;;;10.27;;
20525;SDS011;10421;49.142;9.232;2022-12-05T02:48:07;19.80;;;8.90;;
20525;SDS011;10421;49.142;9.232;2022-12-05T02:50:37;23.07;;;8.23;;
20525;SDS011;10421;49.142;9.232;2022-12-05T02:53:06;27.73;;;9.97;;
20525;SDS011;10421;49.142;9.232;2022-12-05T02:55:35;21.13;;;9.27;;
20525;SDS011;10421;49.142;9.232;2022-12-05T02:58:05;17.47;;;8.90;;
20525;SDS011;10421;49.142;9.232;2022-12-05T03:00:37;20.43;;;9.20;;
20525;SDS011;10421;49.142;9.232;2022-12-05T03:03:11;20.53;;;9.37;;
20525;SDS011;10421;49.142;9.232;2022-12-05T03:05:41;20.90;;;9.50;;
20525;SDS011;10421;49.142;9.232;2022-12-05T03:08:14;22.37;;;10.00;;
20525;SDS011;10421;49.142;9.232;2022-12-05T03:10:44;16.60;;;9.60;;
20525;SDS011;10421;49.142;9.232;2022-12-05T03:13:18;24.63;;;10.23;;
20525;SDS011;10421;49.142;9.232;2022-12-05T03:15:49;20.10;;;9.63;;
20525;SDS011;10421;49.142;9.232;2022-12-05T03:18:21;20.60;;;8.60;;
20525;SDS011;10421;49.142;9.232;2022-12-05T03:20:52;22.13;;;9.23;;
20525;SDS011;10421;49.142;9.232;2022-12-05T03:23:25;19.83;;;8.40;;
20525;SDS011;10421;49.142;9.232;2022-12-05T03:25:58;20.23;;;9.20;;
20525;SDS011;10421;49.142;9.232;2022-12-05T03:28:37;19.37;;;9.50;;
20525;SDS011;10421;49.142;9.232;2022-12-05T03:31:18;20.33;;;8.43;;
20525;SDS011;10421;49.142;9.232;2022-12-05T03:33:49;18.93;;;8.33;;
20525;SDS011;10421;49.142;9.232;2022-12-05T03:36:22;23.60;;;9.57;;
20525;SDS011;10421;49.142;9.232;2022-12-05T03:38:55;18.40;;;7.97;;
20525;SDS011;10421;49.142;9.232;2022-12-05T03:41:29;19.77;;;8.97;;
20525;SDS011;10421;49.142;9.232;2022-12-05T03:44:01;22.10;;;8.43;;
20525;SDS011;10421;49.142;9.232;2022-12-05T03:46:36;18.60;;;8.73;;
20525;SDS011;10421;49.142;9.232;2022-12-05T03:49:06;19.63;;;8.27;;
20525;SDS011;10421;49.142;9.232;2022-12-05T03:51:39;18.90;;;8.67;;
20525;SDS011;10421;49.142;9.232;2022-12-05T03:54:13;18.90;;;8.70;;
20525;SDS011;10421;49.142;9.232;2022-12-05T03:56:44;18.73;;;8.87;;
20525;SDS011;10421;49.142;9.232;2022-12-05T03:59:17;20.77;;;9.47;;
20525;SDS011;10421;49.142;9.232;2022-12-05T04:01:52;20.20;;;8.87;;
20525;SDS011;10421;49.142;9.232;2022-12-05T04:04:21;20.03;;;8.60;;
20525;SDS011;10421;49.142;9.232;2022-12-05T04:06:53;20.60;;;8.10;;
20525;SDS011;10421;49.142;9.232;2022-12-05T04:09:24;18.50;;;8.80;;
20525;SDS011;10421;49.142;9.232;2022-12-05T04:11:54;21.67;;;9.37;;
20525;SDS011;10421;49.142;9.232;2022-12-05T04:14:27;18.47;;;8.80;;
20525;SDS011;10421;49.142;9.232;2022-12-05T04:16:59;22.50;;;8.60;;
20525;SDS011;10421;49.142;9.232;2022-12-05T04:19:31;14.07;;;7.50;;
20525;SDS011;10421;49.142;9.232;2022-12-05T04:22:16;17.60;;;8.60;;
20525;SDS011;10421;49.142;9.232;2022-12-05T04:24:44;15.27;;;8.77;;
20525;SDS011;10421;49.142;9.232;2022-12-05T04:27:31;16.70;;;7.50;;
20525;SDS011;10421;49.142;9.232;2022-12-05T04:30:04;20.33;;;8.63;;
20525;SDS011;10421;49.142;9.232;2022-12-05T04:32:39;17.00;;;8.53;;
20525;SDS011;10421;49.142;9.232;2022-12-05T04:35:11;20.60;;;9.10;;
20525;SDS011;10421;49.142;9.232;2022-12-05T04:37:43;21.80;;;8.60;;
20525;SDS011;10421;49.142;9.232;2022-12-05T04:40:14;19.80;;;8.80;;
20525;SDS011;10421;49.142;9.232;2022-12-05T04:42:45;17.43;;;8.13;;
20525;SDS011;10421;49.142;9.232;2022-12-05T04:45:14;18.60;;;8.50;;
20525;SDS011;10421;49.142;9.232;2022-12-05T04:47:45;17.60;;;8.10;;
20525;SDS011;10421;49.142;9.232;2022-12-05T04:50:15;15.10;;;7.93;;
20525;SDS011;10421;49.142;9.232;2022-12-05T04:52:44;18.43;;;8.40;;
20525;SDS011;10421;49.142;9.232;2022-12-05T04:55:15;20.57;;;7.87;;
20525;SDS011;10421;49.142;9.232;2022-12-05T04:57:50;16.40;;;8.97;;
20525;SDS011;10421;49.142;9.232;2022-12-05T05:00:21;18.43;;;8.50;;
20525;SDS011;10421;49.142;9.232;2022-12-05T05:02:50;14.80;;;7.67;;
20525;SDS011;10421;49.142;9.232;2022-12-05T05:05:23;18.37;;;8.70;;
20525;SDS011;10421;49.142;9.232;2022-12-05T05:07:53;16.30;;;8.00;;
20525;SDS011;10421;49.142;9.232;2022-12-05T05:10:21;22.00;;;9.10;;
20525;SDS011;10421;49.142;9.232;2022-12-05T05:12:56;15.67;;;8.00;;
20525;SDS011;10421;49.142;9.232;2022-12-05T05:15:23;16.33;;;8.20;;
20525;SDS011;10421;49.142;9.232;2022-12-05T05:17:51;18.77;;;8.90;;
20525;SDS011;10421;49.142;9.232;2022-12-05T05:20:18;16.27;;;8.50;;
20525;SDS011;10421;49.142;9.232;2022-12-05T05:22:51;19.27;;;8.57;;
20525;SDS011;10421;49.142;9.232;2022-12-05T05:25:19;17.87;;;9.00;;
20525;SDS011;10421;49.142;9.232;2022-12-05T05:27:46;19.43;;;9.27;;
20525;SDS011;10421;49.142;9.232;2022-12-05T05:30:15;18.07;;;8.30;;
20525;SDS011;10421;49.142;9.232;2022-12-05T05:32:42;17.57;;;8.90;;
20525;SDS011;10421;49.142;9.232;2022-12-05T05:35:10;15.07;;;7.90;;
20525;SDS011;10421;49.142;9.232;2022-12-05T05:37:38;18.60;;;8.57;;
20525;SDS011;10421;49.142;9.232;2022-12-05T05:40:06;18.97;;;8.00;;
20525;SDS011;10421;49.142;9.232;2022-12-05T05:42:34;23.00;;;9.97;;
20525;SDS011;10421;49.142;9.232;2022-12-05T05:45:01;16.50;;;8.07;;
20525;SDS011;10421;49.142;9.232;2022-12-05T05:47:28;19.70;;;8.97;;
20525;SDS011;10421;49.142;9.232;2022-12-05T05:49:55;17.73;;;8.07;;
20525;SDS011;10421;49.142;9.232;2022-12-05T05:52:23;16.93;;;8.23;;
20525;SDS011;10421;49.142;9.232;2022-12-05T05:54:50;19.13;;;8.60;;
20525;SDS011;10421;49.142;9.232;2022-12-05T05:57:16;14.50;;;7.87;;
20525;SDS011;10421;49.142;9.232;2022-12-05T05:59:44;19.07;;;8.67;;
20525;SDS011;10421;49.142;9.232;2022-12-05T06:02:11;16.00;;;8.23;;
20525;SDS011;10421;49.142;9.232;2022-12-05T06:04:37;20.13;;;9.07;;
20525;SDS011;10421;49.142;9.232;2022-12-05T06:07:04;18.47;;;8.60;;
20525;SDS011;10421;49.142;9.232;2022-12-05T06:09:32;21.60;;;9.20;;
20525;SDS011;10421;49.142;9.232;2022-12-05T06:11:59;17.20;;;9.50;;
20525;SDS011;10421;49.142;9.232;2022-12-05T06:14:26;20.63;;;9.10;;
20525;SDS011;10421;49.142;9.232;2022-12-05T06:16:52;21.97;;;10.10;;
20525;SDS011;10421;49.142;9.232;2022-12-05T06:19:19;17.20;;;8.63;;
20525;SDS011;10421;49.142;9.232;2022-12-05T06:21:47;23.23;;;9.13;;
20525;SDS011;10421;49.142;9.232;2022-12-05T06:24:15;23.63;;;10.53;;
20525;SDS011;10421;49.142;9.232;2022-12-05T06:26:43;22.37;;;9.90;;
20525;SDS011;10421;49.142;9.232;2022-12-05T06:29:10;16.03;;;9.07;;
20525;SDS011;10421;49.142;9.232;2022-12-05T06:31:37;19.70;;;8.90;;
20525;SDS011;10421;49.142;9.232;2022-12-05T06:34:04;19.33;;;9.00;;
20525;SDS011;10421;49.142;9.232;2022-12-05T06:36:30;21.40;;;9.60;;
20525;SDS011;10421;49.142;9.232;2022-12-05T06:38:58;18.40;;;8.30;;
20525;SDS011;10421;49.142;9.232;2022-12-05T06:41:25;17.13;;;9.00;;
20525;SDS011;10421;49.142;9.232;2022-12-05T06:43:54;21.97;;;10.27;;
20525;SDS011;10421;49.142;9.232;2022-12-05T06:46:22;21.37;;;10.43;;
20525;SDS011;10421;49.142;9.232;2022-12-05T06:48:51;19.90;;;10.33;;
20525;SDS011;10421;49.142;9.232;2022-12-05T06:51:21;21.63;;;10.30;;
20525;SDS011;10421;49.142;9.232;2022-12-05T06:53:49;21.97;;;9.67;;
20525;SDS011;10421;49.142;9.232;2022-12-05T06:56:17;18.90;;;9.20;;
20525;SDS011;10421;49.142;9.232;2022-12-05T06:58:46;20.03;;;8.70;;
20525;SDS011;10421;49.142;9.232;2022-12-05T07:01:16;19.93;;;9.20;;
20525;SDS011;10421;49.142;9.232;2022-12-05T07:04:01;16.47;;;8.07;;
20525;SDS011;10421;49.142;9.232;2022-12-05T07:06:29;16.93;;;8.53;;
20525;SDS011;10421;49.142;9.232;2022-12-05T07:08:56;22.40;;;9.57;;
20525;SDS011;10421;49.142;9.232;2022-12-05T07:11:23;20.67;;;9.27;;
20525;SDS011;10421;49.142;9.232;2022-12-05T07:13:50;19.23;;;9.30;;
20525;SDS011;10421;49.142;9.232;2022-12-05T07:16:18;15.13;;;8.50;;
20525;SDS011;10421;49.142;9.232;2022-12-05T07:18:45;17.87;;;8.90;;
20525;SDS011;10421;49.142;9.232;2022-12-05T07:21:13;17.27;;;8.40;;
20525;SDS011;10421;49.142;9.232;2022-12-05T07:23:41;16.17;;;8.90;;
20525;SDS011;10421;49.142;9.232;2022-12-05T07:26:10;20.50;;;8.50;;
20525;SDS011;10421;49.142;9.232;2022-12-05T07:28:38;14.90;;;8.10;;
20525;SDS011;10421;49.142;9.232;2022-12-05T07:31:05;16.90;;;7.97;;
20525;SDS011;10421;49.142;9.232;2022-12-05T07:33:35;17.80;;;9.00;;
20525;SDS011;10421;49.142;9.232;2022-12-05T07:36:04;15.90;;;8.70;;
20525;SDS011;10421;49.142;9.232;2022-12-05T07:38:33;19.20;;;8.90;;
20525;SDS011;10421;49.142;9.232;2022-12-05T07:41:03;16.83;;;8.33;;
20525;SDS011;10421;49.142;9.232;2022-12-05T07:43:31;15.80;;;8.40;;
20525;SDS011;10421;49.142;9.232;2022-12-05T07:46:00;16.23;;;8.33;;
20525;SDS011;10421;49.142;9.232;2022-12-05T07:48:27;16.10;;;7.93;;
20525;SDS011;10421;49.142;9.232;2022-12-05T07:50:58;18.93;;;7.97;;
20525;SDS011;10421;49.142;9.232;2022-12-05T07:53:26;19.00;;;8.90;;
20525;SDS011;10421;49.142;9.232;2022-12-05T07:55:53;18.50;;;8.33;;
20525;SDS011;10421;49.142;9.232;2022-12-05T07:58:20;16.13;;;7.67;;
20525;SDS011;10421;49.142;9.232;2022-12-05T08:00:47;17.80;;;9.00;;
20525;SDS011;10421;49.142;9.232;2022-12-05T08:03:13;21.13;;;9.20;;
20525;SDS011;10421;49.142;9.232;2022-12-05T08:05:40;18.40;;;8.70;;
20525;SDS011;10421;49.142;9.232;2022-12-05T08:08:08;21.10;;;9.40;;
20525;SDS011;10421;49.142;9.232;2022-12-05T08:10:35;18.70;;;9.50;;
20525;SDS011;10421;49.142;9.232;2022-12-05T08:13:02;19.40;;;9.20;;
20525;SDS011;10421;49.142;9.232;2022-12-05T08:15:32;18.70;;;8.50;;
20525;SDS011;10421;49.142;9.232;2022-12-05T08:17:59;19.77;;;10.10;;
20525;SDS011;10421;49.142;9.232;2022-12-05T08:20:26;21.43;;;9.60;;
20525;SDS011;10421;49.142;9.232;2022-12-05T08:22:53;19.30;;;8.80;;
20525;SDS011;10421;49.142;9.232;2022-12-05T08:25:21;18.00;;;8.70;;
20525;SDS011;10421;49.142;9.232;2022-12-05T08:27:48;19.10;;;8.30;;
20525;SDS011;10421;49.142;9.232;2022-12-05T08:30:15;21.10;;;8.80;;
20525;SDS011;10421;49.142;9.232;2022-12-05T08:32:41;18.03;;;9.00;;
20525;SDS011;10421;49.142;9.232;2022-12-05T08:35:08;18.40;;;9.17;;
20525;SDS011;10421;49.142;9.232;2022-12-05T08:37:35;15.07;;;8.37;;
20525;SDS011;10421;49.142;9.232;2022-12-05T08:40:02;18.87;;;9.03;;
20525;SDS011;10421;49.142;9.232;2022-12-05T08:42:31;17.43;;;7.97;;
20525;SDS011;10421;49.142;9.232;2022-12-05T08:44:57;17.17;;;8.10;;
20525;SDS011;10421;49.142;9.232;2022-12-05T08:47:24;21.60;;;8.73;;
20525;SDS011;10421;49.142;9.232;2022-12-05T08:49:51;19.57;;;8.30;;
20525;SDS011;10421;49.142;9.232;2022-12-05T08:52:18;15.80;;;8.13;;
20525;SDS011;10421;49.142;9.232;2022-12-05T08:54:45;19.83;;;9.00;;
20525;SDS011;10421;49.142;9.232;2022-12-05T08:57:12;17.03;;;8.53;;
20525;SDS011;10421;49.142;9.232;2022-12-05T08:59:40;17.70;;;8.50;;
20525;SDS011;10421;49.142;9.232;2022-12-05T09:02:07;16.03;;;8.70;;
20525;SDS011;10421;49.142;9.232;2022-12-05T09:04:35;20.00;;;8.70;;
20525;SDS011;10421;49.142;9.232;2022-12-05T09:07:01;16.77;;;8.73;;
20525;SDS011;10421;49.142;9.232;2022-12-05T09:09:28;19.60;;;9.30;;
20525;SDS011;10421;49.142;9.232;2022-12-05T09:11:56;17.33;;;8.50;;
20525;SDS011;10421;49.142;9.232;2022-12-05T09:14:24;15.30;;;8.07;;
20525;SDS011;10421;49.142;9.232;2022-12-05T09:16:58;16.63;;;9.43;;
20525;SDS011;10421;49.142;9.232;2022-12-05T09:19:26;15.93;;;8.00;;
20525;SDS011;10421;49.142;9.232;2022-12-05T09:21:53;17.03;;;8.13;;
20525;SDS011;10421;49.142;9.232;2022-12-05T09:24:20;19.33;;;8.47;;
20525;SDS011;10421;49.142;9.232;2022-12-05T09:26:47;19.33;;;9.03;;
20525;SDS011;10421;49.142;9.232;2022-12-05T09:29:13;17.73;;;8.30;;
20525;SDS011;10421;49.142;9.232;2022-12-05T09:31:40;18.83;;;10.10;;
20525;SDS011;10421;49.142;9.232;2022-12-05T09:34:09;20.97;;;9.17;;
20525;SDS011;10421;49.142;9.232;2022-12-05T09:36:37;19.47;;;8.90;;
20525;SDS011;10421;49.142;9.232;2022-12-05T09:39:04;17.90;;;8.97;;
20525;SDS011;10421;49.142;9.232;2022-12-05T09:41:40;18.57;;;9.07;;
20525;SDS011;10421;49.142;9.232;2022-12-05T09:44:38;21.67;;;9.73;;
20525;SDS011;10421;49.142;9.232;2022-12-05T09:47:14;21.63;;;8.87;;
20525;SDS011;10421;49.142;9.232;2022-12-05T09:49:50;16.67;;;8.40;;
20525;SDS011;10421;49.142;9.232;2022-12-05T09:52:23;16.30;;;8.50;;
20525;SDS011;10421;49.142;9.232;2022-12-05T09:54:52;16.17;;;8.53;;
20525;SDS011;10421;49.142;9.232;2022-12-05T09:57:27;19.93;;;8.07;;
20525;SDS011;10421;49.142;9.232;2022-12-05T09:59:58;21.67;;;9.63;;
20525;SDS011;10421;49.142;9.232;2022-12-05T10:02:28;21.20;;;9.57;;
20525;SDS011;10421;49.142;9.232;2022-12-05T10:05:06;18.80;;;8.60;;
20525;SDS011;10421;49.142;9.232;2022-12-05T10:07:40;14.80;;;9.00;;
20525;SDS011;10421;49.142;9.232;2022-12-05T10:10:20;17.90;;;9.33;;
20525;SDS011;10421;49.142;9.232;2022-12-05T10:15:43;19.20;;;10.63;;
20525;SDS011;10421;49.142;9.232;2022-12-05T10:18:26;19.40;;;9.50;;
20525;SDS011;10421;49.142;9.232;2022-12-05T10:21:01;18.10;;;9.10;;
20525;SDS011;10421;49.142;9.232;2022-12-05T10:23:31;22.13;;;10.57;;
20525;SDS011;10421;49.142;9.232;2022-12-05T10:26:06;21.70;;;10.53;;
20525;SDS011;10421;49.142;9.232;2022-12-05T10:28:36;17.90;;;9.87;;
20525;SDS011;10421;49.142;9.232;2022-12-05T10:31:07;21.80;;;10.97;;
20525;SDS011;10421;49.142;9.232;2022-12-05T10:33:39;22.87;;;10.37;;
20525;SDS011;10421;49.142;9.232;2022-12-05T10:36:14;19.00;;;10.07;;
20525;SDS011;10421;49.142;9.232;2022-12-05T10:38:41;21.23;;;10.70;;
20525;SDS011;10421;49.142;9.232;2022-12-05T10:41:10;22.67;;;10.90;;
20525;SDS011;10421;49.142;9.232;2022-12-05T10:43:40;16.73;;;9.40;;
20525;SDS011;10421;49.142;9.232;2022-12-05T10:46:09;18.23;;;9.70;;
20525;SDS011;10421;49.142;9.232;2022-12-05T10:48:39;21.63;;;9.97;;
20525;SDS011;10421;49.142;9.232;2022-12-05T10:51:12;17.73;;;9.57;;
20525;SDS011;10421;49.142;9.232;2022-12-05T10:53:43;22.43;;;10.30;;
20525;SDS011;10421;49.142;9.232;2022-12-05T10:59:09;19.87;;;9.83;;
20525;SDS011;10421;49.142;9.232;2022-12-05T11:01:42;21.73;;;9.90;;
20525;SDS011;10421;49.142;9.232;2022-12-05T11:04:17;22.53;;;11.30;;
20525;SDS011;10421;49.142;9.232;2022-12-05T11:06:52;17.00;;;9.50;;
20525;SDS011;10421;49.142;9.232;2022-12-05T11:09:22;16.73;;;8.90;;
20525;SDS011;10421;49.142;9.232;2022-12-05T11:14:49;23.13;;;10.60;;
20525;SDS011;10421;49.142;9.232;2022-12-05T11:17:26;20.37;;;11.77;;
20525;SDS011;10421;49.142;9.232;2022-12-05T11:19:55;20.73;;;10.77;;
20525;SDS011;10421;49.142;9.232;2022-12-05T11:22:30;22.30;;;11.37;;
20525;SDS011;10421;49.142;9.232;2022-12-05T11:24:58;19.20;;;9.80;;
20525;SDS011;10421;49.142;9.232;2022-12-05T11:27:26;19.20;;;10.07;;
20525;SDS011;10421;49.142;9.232;2022-12-05T11:29:59;21.93;;;10.17;;
20525;SDS011;10421;49.142;9.232;2022-12-05T11:32:28;23.23;;;9.93;;
20525;SDS011;10421;49.142;9.232;2022-12-05T11:34:58;25.37;;;10.87;;
20525;SDS011;10421;49.142;9.232;2022-12-05T11:37:36;23.00;;;10.33;;
20525;SDS011;10421;49.142;9.232;2022-12-05T11:40:12;19.10;;;10.73;;
20525;SDS011;10421;49.142;9.232;2022-12-05T11:42:48;21.97;;;9.90;;
20525;SDS011;10421;49.142;9.232;2022-12-05T11:45:44;20.43;;;10.10;;
20525;SDS011;10421;49.142;9.232;2022-12-05T11:48:21;22.50;;;10.20;;
20525;SDS011;10421;49.142;9.232;2022-12-05T11:51:10;20.93;;;10.43;;
20525;SDS011;10421;49.142;9.232;2022-12-05T11:54:02;21.07;;;10.40;;
20525;SDS011;10421;49.142;9.232;2022-12-05T11:56:43;21.90;;;10.13;;
20525;SDS011;10421;49.142;9.232;2022-12-05T11:59:21;17.90;;;9.87;;
20525;SDS011;10421;49.142;9.232;2022-12-05T12:02:07;23.60;;;11.83;;
20525;SDS011;10421;49.142;9.232;2022-12-05T12:04:47;17.90;;;9.60;;
20525;SDS011;10421;49.142;9.232;2022-12-05T12:07:21;23.37;;;9.57;;
20525;SDS011;10421;49.142;9.232;2022-12-05T12:09:57;27.03;;;11.93;;
20525;SDS011;10421;49.142;9.232;2022-12-05T12:12:32;19.63;;;10.20;;
20525;SDS011;10421;49.142;9.232;2022-12-05T12:15:24;16.87;;;10.00;;
20525;SDS011;10421;49.142;9.232;2022-12-05T12:18:02;17.83;;;9.27;;
20525;SDS011;10421;49.142;9.232;2022-12-05T12:20:40;17.43;;;9.53;;
20525;SDS011;10421;49.142;9.232;2022-12-05T12:23:26;18.60;;;9.93;;
20525;SDS011;10421;49.142;9.232;2022-12-05T12:26:06;22.20;;;10.67;;
20525;SDS011;10421;49.142;9.232;2022-12-05T12:28:38;16.63;;;9.13;;
20525;SDS011;10421;49.142;9.232;2022-12-05T12:31:22;18.10;;;9.67;;
20525;SDS011;10421;49.142;9.232;2022-12-05T12:33:57;16.43;;;9.10;;
20525;SDS011;10421;49.142;9.232;2022-12-05T12:36:35;23.50;;;10.63;;
20525;SDS011;10421;49.142;9.232;2022-12-05T12:39:19;20.00;;;9.63;;
20525;SDS011;10421;49.142;9.232;2022-12-05T12:42:05;17.23;;;9.10;;
20525;SDS011;10421;49.142;9.232;2022-12-05T12:44:52;19.13;;;9.80;;
20525;SDS011;10421;49.142;9.232;2022-12-05T12:47:44;20.90;;;10.17;;
20525;SDS011;10421;49.142;9.232;2022-12-05T12:50:31;22.40;;;9.60;;
20525;SDS011;10421;49.142;9.232;2022-12-05T12:53:11;19.40;;;10.67;;
20525;SDS011;10421;49.142;9.232;2022-12-05T12:55:56;19.53;;;10.47;;
20525;SDS011;10421;49.142;9.232;2022-12-05T12:58:33;20.60;;;10.00;;
20525;SDS011;10421;49.142;9.232;2022-12-05T13:01:09;17.83;;;9.70;;
20525;SDS011;10421;49.142;9.232;2022-12-05T13:03:43;22.63;;;10.17;;
20525;SDS011;10421;49.142;9.232;2022-12-05T13:06:13;19.43;;;10.40;;
20525;SDS011;10421;49.142;9.232;2022-12-05T13:08:44;21.97;;;10.00;;
20525;SDS011;10421;49.142;9.232;2022-12-05T13:11:16;18.50;;;10.53;;
20525;SDS011;10421;49.142;9.232;2022-12-05T13:13:47;22.77;;;10.77;;
20525;SDS011;10421;49.142;9.232;2022-12-05T13:16:20;16.80;;;9.70;;
20525;SDS011;10421;49.142;9.232;2022-12-05T13:18:51;16.80;;;9.77;;
20525;SDS011;10421;49.142;9.232;2022-12-05T13:21:18;19.17;;;10.03;;
20525;SDS011;10421;49.142;9.232;2022-12-05T13:23:46;21.97;;;10.40;;
20525;SDS011;10421;49.142;9.232;2022-12-05T13:26:14;17.87;;;9.53;;
20525;SDS011;10421;49.142;9.232;2022-12-05T13:28:48;21.40;;;9.57;;
20525;SDS011;10421;49.142;9.232;2022-12-05T13:31:18;22.90;;;9.60;;
20525;SDS011;10421;49.142;9.232;2022-12-05T13:33:58;17.40;;;8.50;;
20525;SDS011;10421;49.142;9.232;2022-12-05T13:36:25;17.10;;;8.27;;
20525;SDS011;10421;49.142;9.232;2022-12-05T13:39:17;16.00;;;8.90;;
20525;SDS011;10421;49.142;9.232;2022-12-05T13:42:03;14.70;;;8.17;;
20525;SDS011;10421;49.142;9.232;2022-12-05T13:44:42;15.93;;;8.63;;
20525;SDS011;10421;49.142;9.232;2022-12-05T13:47:19;16.20;;;8.70;;
20525;SDS011;10421;49.142;9.232;2022-12-05T13:49:54;13.77;;;7.43;;
20525;SDS011;10421;49.142;9.232;2022-12-05T13:52:27;15.23;;;8.30;;
20525;SDS011;10421;49.142;9.232;2022-12-05T13:54:56;15.70;;;8.03;;
20525;SDS011;10421;49.142;9.232;2022-12-05T14:00:23;18.00;;;8.70;;
20525;SDS011;10421;49.142;9.232;2022-12-05T14:02:53;15.83;;;9.17;;
20525;SDS011;10421;49.142;9.232;2022-12-05T14:11:11;14.10;;;7.80;;
20525;SDS011;10421;49.142;9.232;2022-12-05T14:13:38;17.00;;;8.90;;
20525;SDS011;10421;49.142;9.232;2022-12-05T14:25:20;17.70;;;8.20;;
20525;SDS011;10421;49.142;9.232;2022-12-05T14:27:55;15.90;;;8.80;;
20525;SDS011;10421;49.142;9.232;2022-12-05T14:30:28;15.80;;;8.57;;
20525;SDS011;10421;49.142;9.232;2022-12-05T14:33:10;17.37;;;8.37;;
20525;SDS011;10421;49.142;9.232;2022-12-05T14:35:43;16.50;;;8.87;;
20525;SDS011;10421;49.142;9.232;2022-12-05T14:38:18;12.97;;;7.80;;
20525;SDS011;10421;49.142;9.232;2022-12-05T14:40:48;13.37;;;8.40;;
20525;SDS011;10421;49.142;9.232;2022-12-05T14:43:16;19.43;;;8.53;;
20525;SDS011;10421;49.142;9.232;2022-12-05T14:45:53;13.93;;;7.83;;
20525;SDS011;10421;49.142;9.232;2022-12-05T14:48:25;13.97;;;8.07;;
20525;SDS011;10421;49.142;9.232;2022-12-05T14:50:56;14.57;;;8.10;;
20525;SDS011;10421;49.142;9.232;2022-12-05T14:53:32;15.87;;;8.40;;
20525;SDS011;10421;49.142;9.232;2022-12-05T14:56:04;13.97;;;8.07;;
20525;SDS011;10421;49.142;9.232;2022-12-05T14:58:53;15.80;;;9.17;;
20525;SDS011;10421;49.142;9.232;2022-12-05T15:01:25;16.97;;;7.97;;
20525;SDS011;10421;49.142;9.232;2022-12-05T15:03:58;14.73;;;8.20;;
20525;SDS011;10421;49.142;9.232;2022-12-05T15:06:32;10.47;;;7.07;;
20525;SDS011;10421;49.142;9.232;2022-12-05T15:09:02;20.17;;;10.10;;
20525;SDS011;10421;49.142;9.232;2022-12-05T15:11:31;32.20;;;17.77;;
20525;SDS011;10421;49.142;9.232;2022-12-05T15:14:07;34.33;;;18.87;;
20525;SDS011;10421;49.142;9.232;2022-12-05T15:16:42;22.60;;;11.87;;
20525;SDS011;10421;49.142;9.232;2022-12-05T15:19:14;14.57;;;8.53;;
20525;SDS011;10421;49.142;9.232;2022-12-05T15:21:45;15.90;;;8.23;;
20525;SDS011;10421;49.142;9.232;2022-12-05T15:24:16;15.03;;;8.10;;